Time;durP1;ratioP1;P1;durP2;ratioP2;P2;SDS_P1;SDS_P2;PMS_P1;PMS_P2;Temp;Humidity;BMP_temperature;BMP_pressure;BME280_temperature;BME280_humidity;BME280_pressure;Samples;Min_cycle;Max_cycle;Signal;HPM_P1;HPM_P2
2022/01/18 00:00:44;;;;;;;6.78;1.83;;;7.70;95.40;;;;;;2089031;28;20029;-88
2022/01/18 00:01:46;;;;;;;7.72;1.95;;;7.70;95.40;;;;;;2088907;28;20021;-88
2022/01/18 00:02:47;;;;;;;7.78;2.03;;;7.70;95.40;;;;;;2080788;28;20022;-88
2022/01/18 00:03:47;;;;;;;13.02;3.13;;;7.70;95.40;;;;;;2072664;28;20670;-87
2022/01/18 00:04:48;;;;;;;12.45;2.17;;;7.70;95.40;;;;;;2089342;28;20160;-88
2022/01/18 00:05:50;;;;;;;11.63;1.90;;;7.70;95.40;;;;;;2097577;28;20032;-88
2022/01/18 00:06:53;;;;;;;12.52;2.35;;;7.80;95.50;;;;;;2096480;28;20029;-88
2022/01/18 00:07:54;;;;;;;10.63;2.38;;;7.70;95.50;;;;;;2089333;28;20036;-88
2022/01/18 00:08:55;;;;;;;10.68;2.05;;;7.70;95.40;;;;;;2078926;28;20030;-88
2022/01/18 00:09:55;;;;;;;10.68;2.25;;;7.70;95.40;;;;;;2098138;28;20032;-88
2022/01/18 00:10:56;;;;;;;10.45;2.28;;;7.70;95.50;;;;;;2090343;28;20021;-88
2022/01/18 00:12:14;;;;;;;10.52;2.13;;;7.70;95.50;;;;;;2080992;28;20029;-88
2022/01/18 00:13:36;;;;;;;8.85;1.90;;;7.70;95.50;;;;;;2087107;28;20033;-88
2022/01/18 00:14:43;;;;;;;6.78;1.70;;;7.70;95.50;;;;;;2089881;28;20040;-88
2022/01/18 00:16:08;;;;;;;9.02;2.00;;;7.70;95.50;;;;;;2089015;28;20033;-88
2022/01/18 00:17:19;;;;;;;7.45;1.77;;;7.70;95.50;;;;;;2089819;28;20033;-88
2022/01/18 00:18:19;;;;;;;8.88;2.28;;;7.70;95.40;;;;;;2090951;28;20044;-88
2022/01/18 00:19:24;;;;;;;10.40;2.13;;;7.70;95.50;;;;;;2097931;28;20029;-88
2022/01/18 00:20:36;;;;;;;6.53;1.83;;;7.70;95.50;;;;;;2088737;28;20031;-88
2022/01/18 00:22:41;;;;;;;12.10;2.45;;;7.70;95.50;;;;;;2082945;28;20025;-88
2022/01/18 00:23:42;;;;;;;11.48;2.50;;;7.70;95.50;;;;;;2082735;28;20526;-88
2022/01/18 00:24:43;;;;;;;8.00;2.03;;;7.70;95.50;;;;;;2073820;28;20026;-87
2022/01/18 00:25:48;;;;;;;12.38;2.55;;;7.70;95.50;;;;;;2082287;28;20148;-88
2022/01/18 00:26:49;;;;;;;9.75;2.33;;;7.70;95.50;;;;;;2084840;28;20488;-88
2022/01/18 00:27:50;;;;;;;9.27;2.25;;;7.70;95.50;;;;;;2084413;28;20029;-88
2022/01/18 00:28:56;;;;;;;11.20;2.60;;;7.70;95.60;;;;;;2081944;28;20368;-88
2022/01/18 00:34:05;;;;;;;9.05;2.40;;;7.70;95.60;;;;;;2085950;28;20049;-88
2022/01/18 00:35:06;;;;;;;10.55;2.95;;;7.70;95.60;;;;;;2094820;28;20052;-88
2022/01/18 00:36:11;;;;;;;9.20;2.53;;;7.70;95.60;;;;;;2095789;28;20488;-88
2022/01/18 00:37:25;;;;;;;10.40;2.67;;;7.70;95.90;;;;;;2082710;28;20116;-88
2022/01/18 00:38:46;;;;;;;9.82;2.22;;;7.70;95.60;;;;;;2081980;28;20025;-88
2022/01/18 00:39:46;;;;;;;8.70;2.20;;;7.70;95.60;;;;;;2095354;28;20397;-88
2022/01/18 00:40:47;;;;;;;10.70;2.58;;;7.70;95.60;;;;;;2098751;28;20024;-86
2022/01/18 00:41:48;;;;;;;8.27;2.33;;;7.70;95.60;;;;;;2082702;28;20025;-88
2022/01/18 00:42:48;;;;;;;8.13;2.20;;;7.70;95.60;;;;;;2085226;28;20032;-88
2022/01/18 00:43:49;;;;;;;12.23;2.67;;;7.70;95.60;;;;;;2085446;28;20501;-88
2022/01/18 00:44:50;;;;;;;10.85;2.30;;;7.70;95.70;;;;;;2090289;28;20025;-88
2022/01/18 00:45:51;;;;;;;8.90;2.20;;;7.70;95.60;;;;;;2088117;28;20045;-88
2022/01/18 00:46:52;;;;;;;9.40;2.50;;;7.70;95.70;;;;;;2092945;28;20033;-88
2022/01/18 00:47:52;;;;;;;10.25;2.65;;;7.70;95.70;;;;;;2083088;28;20034;-88
2022/01/18 00:48:55;;;;;;;12.65;2.70;;;7.70;95.70;;;;;;2087263;28;20112;-88
2022/01/18 00:50:01;;;;;;;14.55;2.60;;;7.70;95.70;;;;;;2084680;28;20112;-88
2022/01/18 00:51:05;;;;;;;11.43;2.17;;;7.70;95.70;;;;;;2089730;28;20414;-87
2022/01/18 00:52:07;;;;;;;12.65;2.38;;;7.70;95.70;;;;;;2087574;28;20568;-88
2022/01/18 00:53:12;;;;;;;7.05;2.25;;;7.70;95.70;;;;;;2095693;28;20064;-88
2022/01/18 00:54:18;;;;;;;11.70;2.38;;;7.70;95.70;;;;;;2073893;28;20133;-88
2022/01/18 00:55:19;;;;;;;11.98;2.13;;;7.70;95.70;;;;;;2085283;28;20304;-88
2022/01/18 00:56:26;;;;;;;10.93;2.42;;;7.70;95.70;;;;;;2098500;28;20563;-88
2022/01/18 00:57:28;;;;;;;10.80;2.40;;;7.70;95.70;;;;;;2089772;28;20033;-88
2022/01/18 00:58:29;;;;;;;13.57;2.53;;;7.70;95.70;;;;;;2098854;28;20127;-88
2022/01/18 00:59:29;;;;;;;9.63;2.33;;;7.60;95.70;;;;;;2078390;28;20101;-88
2022/01/18 01:00:30;;;;;;;12.82;2.30;;;7.60;95.70;;;;;;2073369;28;20037;-88
2022/01/18 01:01:31;;;;;;;8.38;2.20;;;7.60;95.70;;;;;;2083861;28;20051;-88
2022/01/18 01:02:32;;;;;;;11.82;2.60;;;7.60;95.70;;;;;;2074201;28;20129;-88
2022/01/18 01:03:33;;;;;;;11.98;2.35;;;7.60;95.70;;;;;;2084850;28;20127;-89
2022/01/18 01:04:38;;;;;;;12.63;2.50;;;7.60;95.70;;;;;;2096322;28;20032;-88
2022/01/18 01:05:39;;;;;;;8.85;2.30;;;7.60;95.70;;;;;;2080781;28;20078;-88
2022/01/18 01:06:40;;;;;;;13.23;2.55;;;7.60;95.70;;;;;;2082359;28;20037;-88
2022/01/18 01:07:41;;;;;;;14.70;2.88;;;7.60;95.70;;;;;;2089327;28;20104;-87
2022/01/18 01:08:42;;;;;;;12.70;2.28;;;7.60;95.70;;;;;;2089973;28;20056;-88
2022/01/18 01:09:42;;;;;;;12.15;2.40;;;7.60;95.70;;;;;;2089341;28;20115;-89
2022/01/18 01:10:44;;;;;;;10.25;2.20;;;7.60;95.70;;;;;;2090407;28;20017;-88
2022/01/18 01:11:44;;;;;;;10.07;2.63;;;7.60;95.80;;;;;;2083233;28;20032;-88
2022/01/18 01:12:45;;;;;;;12.85;2.35;;;7.50;95.70;;;;;;2083352;28;20111;-88
2022/01/18 01:13:50;;;;;;;11.38;2.70;;;7.50;95.70;;;;;;2090160;28;20021;-88
2022/01/18 01:14:53;;;;;;;12.27;2.80;;;7.60;95.80;;;;;;2093956;28;20513;-88
2022/01/18 01:17:12;;;;;;;8.70;2.20;;;7.50;95.80;;;;;;2090402;28;20088;-88
2022/01/18 01:32:17;;;;;;;9.80;2.65;;;7.50;95.80;;;;;;2090310;28;20027;-88
2022/01/18 01:35:29;;;;;;;8.07;2.63;;;7.50;95.80;;;;;;2098724;28;20021;-88
2022/01/18 01:36:49;;;;;;;10.35;3.00;;;7.40;95.80;;;;;;2093523;28;20033;-88
2022/01/18 01:44:01;;;;;;;11.00;3.05;;;7.40;95.80;;;;;;2087350;28;20128;-88
2022/01/18 01:44:45;;;;;;;10.05;2.90;;;7.40;96.10;;;;;;2081144;28;20037;-87
2022/01/18 01:45:48;;;;;;;9.35;2.90;;;7.30;95.80;;;;;;2079505;28;20018;-87
2022/01/18 01:46:49;;;;;;;8.35;2.92;;;7.30;95.80;;;;;;2086704;28;20021;-88
2022/01/18 01:47:52;;;;;;;11.55;3.13;;;7.30;95.80;;;;;;2088467;28;20638;-88
2022/01/18 01:48:55;;;;;;;10.52;3.25;;;7.30;95.80;;;;;;2082140;28;20060;-88
2022/01/18 01:49:56;;;;;;;15.18;3.40;;;7.40;95.90;;;;;;2077506;28;20113;-88
2022/01/18 01:51:05;;;;;;;10.05;2.72;;;7.40;95.90;;;;;;2082102;28;20124;-88
2022/01/18 01:52:08;;;;;;;11.95;3.53;;;7.40;95.90;;;;;;2087397;28;20071;-88
2022/01/18 01:53:10;;;;;;;10.77;3.40;;;7.40;95.90;;;;;;2096235;28;20037;-88
2022/01/18 01:54:12;;;;;;;15.35;3.53;;;7.40;95.90;;;;;;2093831;28;20115;-87
2022/01/18 01:55:13;;;;;;;9.88;3.40;;;7.40;95.90;;;;;;2083237;28;20124;-88
2022/01/18 01:56:14;;;;;;;12.20;3.50;;;7.30;95.90;;;;;;2084197;28;20025;-87
2022/01/18 01:57:15;;;;;;;10.65;3.30;;;7.30;95.90;;;;;;2084291;28;20033;-88
2022/01/18 01:58:16;;;;;;;10.35;3.40;;;7.30;95.90;;;;;;2082223;28;20384;-88
2022/01/18 01:59:17;;;;;;;13.68;3.70;;;7.30;96.00;;;;;;2083712;28;20057;-89
2022/01/18 02:00:20;;;;;;;10.13;3.22;;;7.30;96.00;;;;;;2091027;28;20033;-88
2022/01/18 02:01:20;;;;;;;13.27;3.53;;;7.30;96.00;;;;;;2090293;28;20399;-89
2022/01/18 02:02:21;;;;;;;10.32;3.75;;;7.30;96.00;;;;;;2081914;28;20068;-89
2022/01/18 02:03:23;;;;;;;10.48;3.42;;;7.30;96.00;;;;;;2087904;28;20560;-89
2022/01/18 02:04:24;;;;;;;12.80;3.95;;;7.40;96.00;;;;;;2090727;28;20039;-88
2022/01/18 02:05:24;;;;;;;10.18;3.47;;;7.40;96.00;;;;;;2086684;28;20025;-88
2022/01/18 02:06:25;;;;;;;14.10;4.32;;;7.40;96.00;;;;;;2087920;28;20036;-89
2022/01/18 02:07:26;;;;;;;10.18;3.40;;;7.40;96.00;;;;;;2082530;28;20495;-88
2022/01/18 02:08:26;;;;;;;10.02;3.67;;;7.40;96.00;;;;;;2092985;28;20029;-88
2022/01/18 02:09:27;;;;;;;11.18;3.58;;;7.40;96.00;;;;;;2090039;28;20047;-89
2022/01/18 02:10:28;;;;;;;11.45;3.95;;;7.30;95.90;;;;;;2085009;28;20028;-89
2022/01/18 02:11:28;;;;;;;11.63;4.00;;;7.40;96.00;;;;;;2085383;28;20029;-88
2022/01/18 02:12:29;;;;;;;10.13;3.90;;;7.40;96.00;;;;;;2098385;28;20046;-88
2022/01/18 02:13:32;;;;;;;12.93;4.03;;;7.40;96.00;;;;;;2088064;28;20021;-88
2022/01/18 02:14:33;;;;;;;9.00;3.42;;;7.40;96.00;;;;;;2081440;28;20061;-88
2022/01/18 02:15:42;;;;;;;11.40;3.97;;;7.40;96.00;;;;;;2087315;28;20036;-88
2022/01/18 02:22:04;;;;;;;14.20;3.65;;;7.40;96.00;;;;;;2082461;28;20071;-88
2022/01/18 02:23:04;;;;;;;10.85;3.95;;;7.40;96.00;;;;;;2083225;28;20026;-88
2022/01/18 02:24:08;;;;;;;11.68;3.78;;;7.40;95.90;;;;;;2088880;28;20036;-88
2022/01/18 02:25:08;;;;;;;11.60;3.83;;;7.40;96.00;;;;;;2097589;28;20115;-88
2022/01/18 02:26:09;;;;;;;11.43;4.25;;;7.40;96.00;;;;;;2088870;28;20021;-88
2022/01/18 02:27:10;;;;;;;10.77;4.15;;;7.40;96.00;;;;;;2090067;28;20043;-88
2022/01/18 02:28:11;;;;;;;12.95;4.60;;;7.40;96.00;;;;;;2101043;28;20038;-89
2022/01/18 02:29:14;;;;;;;9.65;3.90;;;7.40;96.00;;;;;;2095322;28;20082;-88
2022/01/18 02:30:15;;;;;;;11.07;3.97;;;7.40;96.00;;;;;;2089842;28;20027;-88
2022/01/18 02:31:18;;;;;;;11.25;4.05;;;7.40;96.00;;;;;;2092811;28;20034;-87
2022/01/18 02:32:19;;;;;;;11.43;3.63;;;7.40;96.00;;;;;;2096196;28;20107;-87
2022/01/18 02:33:20;;;;;;;11.07;4.25;;;7.40;96.00;;;;;;2097682;28;20032;-88
2022/01/18 02:34:21;;;;;;;9.98;3.88;;;7.40;96.00;;;;;;2097556;28;20043;-88
2022/01/18 02:35:22;;;;;;;12.43;4.20;;;7.40;96.00;;;;;;2081697;28;20040;-88
2022/01/18 02:36:22;;;;;;;15.10;4.68;;;7.30;96.00;;;;;;2065388;28;20030;-89
2022/01/18 02:37:23;;;;;;;13.18;4.03;;;7.40;96.10;;;;;;2073555;28;20025;-88
2022/01/18 02:38:24;;;;;;;11.25;3.85;;;7.40;96.10;;;;;;2093530;28;20036;-88
2022/01/18 02:39:27;;;;;;;9.68;4.25;;;7.40;96.10;;;;;;2088663;28;20025;-88
2022/01/18 02:40:29;;;;;;;13.57;4.65;;;7.40;96.10;;;;;;2090072;28;20029;-88
2022/01/18 02:41:31;;;;;;;14.20;4.38;;;7.40;96.10;;;;;;2089364;28;20032;-88
2022/01/18 02:42:41;;;;;;;10.93;4.22;;;7.40;96.10;;;;;;2080995;28;20032;-88
2022/01/18 02:43:48;;;;;;;11.45;4.43;;;7.40;96.10;;;;;;2083365;28;20034;-88
2022/01/18 02:44:49;;;;;;;13.35;4.13;;;7.40;96.10;;;;;;2089978;28;20022;-88
2022/01/18 02:45:51;;;;;;;13.23;4.60;;;7.40;96.10;;;;;;2084309;28;20480;-88
2022/01/18 02:46:53;;;;;;;13.88;4.25;;;7.40;96.10;;;;;;2081349;28;20029;-88
2022/01/18 02:47:54;;;;;;;13.52;4.35;;;7.40;96.10;;;;;;2089424;28;20147;-88
2022/01/18 02:48:57;;;;;;;14.23;4.50;;;7.40;96.10;;;;;;2087279;28;20170;-87
2022/01/18 02:49:57;;;;;;;9.95;4.07;;;7.40;96.10;;;;;;2095572;28;20032;-88
2022/01/18 02:50:58;;;;;;;10.07;4.07;;;7.40;96.10;;;;;;2101684;28;20106;-88
2022/01/18 02:52:00;;;;;;;11.52;4.30;;;7.40;96.10;;;;;;2089003;28;20504;-88
2022/01/18 02:53:00;;;;;;;10.10;4.25;;;7.40;96.10;;;;;;2067184;28;20042;-88
2022/01/18 02:54:06;;;;;;;12.40;4.20;;;7.40;96.10;;;;;;2076467;28;20512;-88
2022/01/18 02:55:07;;;;;;;11.20;4.22;;;7.40;96.10;;;;;;2089068;28;20021;-88
2022/01/18 02:56:08;;;;;;;13.60;4.70;;;7.40;96.10;;;;;;2085438;28;20024;-88
2022/01/18 02:57:15;;;;;;;11.73;4.28;;;7.40;96.10;;;;;;2090411;28;20507;-88
2022/01/18 02:58:23;;;;;;;11.57;4.30;;;7.40;96.10;;;;;;2089787;28;20059;-88
2022/01/18 02:59:50;;;;;;;10.63;4.25;;;7.40;96.10;;;;;;2087021;28;20121;-88
2022/01/18 03:03:49;;;;;;;11.32;4.18;;;7.40;96.00;;;;;;2087760;28;20082;-88
2022/01/18 03:04:51;;;;;;;12.27;3.90;;;7.40;96.00;;;;;;2082035;28;20082;-88
2022/01/18 03:05:52;;;;;;;11.60;3.97;;;7.40;96.00;;;;;;2084425;28;20476;-88
2022/01/18 03:06:53;;;;;;;12.27;4.30;;;7.40;96.00;;;;;;2088751;28;20507;-88
2022/01/18 03:07:54;;;;;;;12.52;4.55;;;7.40;96.00;;;;;;2089950;28;20045;-88
2022/01/18 03:08:54;;;;;;;14.15;4.72;;;7.40;96.10;;;;;;2089973;28;20513;-88
2022/01/18 03:09:55;;;;;;;15.05;4.45;;;7.30;96.00;;;;;;2091314;28;20037;-88
2022/01/18 03:10:57;;;;;;;13.60;4.43;;;7.30;96.00;;;;;;2093426;28;20554;-88
2022/01/18 03:11:57;;;;;;;13.13;4.72;;;7.30;96.00;;;;;;2093060;28;20113;-88
2022/01/18 03:12:58;;;;;;;13.77;4.32;;;7.40;96.10;;;;;;2095261;28;20063;-88
2022/01/18 03:13:59;;;;;;;11.90;4.35;;;7.30;96.10;;;;;;2094868;28;20037;-89
2022/01/18 03:14:59;;;;;;;13.68;4.13;;;7.40;96.10;;;;;;2093825;28;20068;-88
2022/01/18 03:16:00;;;;;;;12.65;4.25;;;7.40;96.10;;;;;;2088547;28;20078;-88
2022/01/18 03:17:01;;;;;;;11.88;4.35;;;7.40;96.10;;;;;;2081202;28;20030;-89
2022/01/18 03:18:04;;;;;;;14.80;4.70;;;7.40;96.10;;;;;;2089917;28;20036;-88
2022/01/18 03:19:05;;;;;;;15.85;4.75;;;7.40;96.10;;;;;;2083547;28;20553;-88
2022/01/18 03:20:06;;;;;;;17.90;4.85;;;7.30;96.10;;;;;;2083987;28;20022;-88
2022/01/18 03:21:09;;;;;;;13.82;4.80;;;7.40;96.10;;;;;;2089443;28;20398;-88
2022/01/18 03:22:10;;;;;;;14.05;4.50;;;7.30;96.10;;;;;;2087120;28;20411;-88
2022/01/18 03:23:19;;;;;;;15.75;4.55;;;7.40;96.10;;;;;;2089936;28;20075;-88
2022/01/18 03:25:24;;;;;;;13.02;4.35;;;7.30;96.10;;;;;;2089651;28;20524;-88
2022/01/18 03:25:53;;;;;;;;;;;7.30;96.10;;;;;;2073737;28;20388;-88
2022/01/18 03:28:14;;;;;;;7.93;3.40;;;7.30;96.30;;;;;;2085976;28;20082;-88
2022/01/18 03:29:15;;;;;;;13.27;3.58;;;7.30;96.00;;;;;;2081435;28;20025;-88
2022/01/18 03:30:16;;;;;;;13.00;4.03;;;7.30;96.00;;;;;;2085712;28;20537;-88
2022/01/18 03:31:16;;;;;;;10.70;3.47;;;7.30;96.00;;;;;;2080969;28;20025;-88
2022/01/18 03:32:17;;;;;;;11.55;3.60;;;7.30;96.10;;;;;;2082540;28;20102;-88
2022/01/18 03:33:19;;;;;;;11.95;3.42;;;7.30;96.10;;;;;;2089180;28;20480;-88
2022/01/18 03:34:19;;;;;;;12.10;3.83;;;7.30;96.10;;;;;;2097673;28;20043;-88
2022/01/18 03:35:21;;;;;;;8.75;3.30;;;7.30;96.10;;;;;;2103178;28;20054;-87
2022/01/18 03:36:21;;;;;;;9.43;3.22;;;7.30;96.10;;;;;;2072506;28;20049;-88
2022/01/18 03:37:22;;;;;;;8.38;2.88;;;7.30;96.40;;;;;;2064344;28;20023;-88
2022/01/18 03:38:30;;;;;;;12.75;3.20;;;7.30;96.10;;;;;;2072720;28;20468;-88
2022/01/18 03:39:31;;;;;;;9.18;3.30;;;7.30;96.10;;;;;;2090650;28;20384;-88
2022/01/18 03:40:32;;;;;;;9.60;2.72;;;7.30;96.10;;;;;;2086946;28;20120;-88
2022/01/18 03:41:33;;;;;;;8.27;2.50;;;7.30;96.10;;;;;;2081156;28;20025;-87
2022/01/18 03:43:39;;;;;;;9.20;2.22;;;7.30;96.10;;;;;;2081636;28;20026;-87
2022/01/18 03:44:39;;;;;;;8.48;2.58;;;7.30;96.10;;;;;;2081363;28;20064;-88
2022/01/18 03:45:44;;;;;;;5.70;2.05;;;7.30;96.00;;;;;;2081367;28;20033;-88
2022/01/18 03:46:46;;;;;;;7.70;2.25;;;7.30;96.00;;;;;;2078842;28;20555;-88
2022/01/18 03:47:47;;;;;;;7.38;2.10;;;7.30;96.30;;;;;;2073874;28;20464;-88
2022/01/18 03:48:50;;;;;;;8.27;2.53;;;7.30;96.00;;;;;;2085542;28;20134;-88
2022/01/18 03:49:51;;;;;;;11.63;2.63;;;7.30;96.00;;;;;;2091468;28;20399;-88
2022/01/18 03:50:52;;;;;;;9.10;2.47;;;7.30;96.00;;;;;;2087343;28;20053;-88
2022/01/18 03:51:53;;;;;;;9.55;2.67;;;7.30;96.30;;;;;;2089049;28;20025;-88
2022/01/18 03:52:54;;;;;;;9.20;2.47;;;7.30;96.00;;;;;;2088149;28;20116;-88
2022/01/18 03:53:56;;;;;;;8.18;2.20;;;7.30;96.00;;;;;;2092974;28;20048;-87
2022/01/18 03:54:57;;;;;;;9.73;2.60;;;7.30;96.00;;;;;;2089255;28;20111;-88
2022/01/18 03:55:58;;;;;;;6.13;2.70;;;7.30;96.00;;;;;;2080478;28;20033;-88
2022/01/18 03:56:58;;;;;;;9.77;2.60;;;7.30;96.00;;;;;;2081574;28;20056;-88
2022/01/18 03:57:59;;;;;;;6.30;2.20;;;7.30;96.00;;;;;;2087899;28;20407;-88
2022/01/18 03:58:59;;;;;;;10.27;2.53;;;7.30;96.00;;;;;;2068456;28;20085;-88
2022/01/18 04:00:00;;;;;;;10.10;2.60;;;7.30;96.00;;;;;;2064291;28;20036;-88
2022/01/18 04:01:02;;;;;;;8.93;2.10;;;7.30;96.00;;;;;;2072898;28;20026;-88
2022/01/18 04:02:02;;;;;;;8.80;2.22;;;7.30;96.00;;;;;;2073027;28;20080;-88
2022/01/18 04:03:03;;;;;;;9.40;2.38;;;7.30;96.00;;;;;;2079428;28;20041;-88
2022/01/18 04:04:04;;;;;;;7.57;2.38;;;7.30;96.00;;;;;;2084297;28;20033;-88
2022/01/18 04:05:05;;;;;;;10.18;2.70;;;7.30;96.00;;;;;;2094732;28;20458;-88
2022/01/18 04:06:07;;;;;;;9.45;2.58;;;7.30;96.00;;;;;;2081471;28;20075;-88
2022/01/18 04:07:08;;;;;;;11.95;2.90;;;7.30;96.00;;;;;;2084002;28;20063;-88
2022/01/18 04:08:08;;;;;;;11.43;2.92;;;7.30;96.00;;;;;;2089943;28;20107;-87
2022/01/18 04:09:09;;;;;;;9.75;2.78;;;7.40;96.00;;;;;;2091654;28;20506;-88
2022/01/18 04:10:11;;;;;;;10.98;2.60;;;7.30;96.00;;;;;;2096161;28;20033;-88
2022/01/18 04:11:11;;;;;;;10.13;2.83;;;7.40;96.00;;;;;;2082736;28;20104;-88
2022/01/18 04:12:12;;;;;;;10.27;2.70;;;7.40;96.00;;;;;;2091906;28;20028;-88
2022/01/18 04:13:13;;;;;;;8.75;2.92;;;7.30;96.00;;;;;;2088089;28;20025;-88
2022/01/18 04:14:13;;;;;;;10.63;2.78;;;7.30;96.20;;;;;;2075313;28;20052;-88
2022/01/18 04:15:16;;;;;;;10.48;3.13;;;7.30;96.00;;;;;;2081175;28;20052;-88
2022/01/18 04:16:17;;;;;;;10.82;2.80;;;7.30;96.00;;;;;;2081557;28;20503;-88
2022/01/18 04:18:34;;;;;;;12.65;2.58;;;7.30;96.00;;;;;;2086991;28;20032;-88
2022/01/18 04:27:25;;;;;;;10.68;2.72;;;7.30;95.90;;;;;;2080722;28;20152;-88
2022/01/18 04:29:27;;;;;;;11.80;3.65;;;7.30;95.90;;;;;;2089081;28;20026;-88
2022/01/18 04:30:28;;;;;;;9.10;2.55;;;7.20;95.90;;;;;;2088535;28;20502;-88
2022/01/18 04:31:29;;;;;;;11.45;3.08;;;7.30;95.90;;;;;;2081021;28;20022;-88
2022/01/18 04:32:30;;;;;;;10.88;3.30;;;7.20;95.90;;;;;;2089344;28;20047;-88
2022/01/18 04:33:31;;;;;;;10.68;2.95;;;7.20;95.90;;;;;;2089098;28;20030;-88
2022/01/18 04:34:32;;;;;;;9.32;3.42;;;7.20;95.90;;;;;;2087873;28;20112;-88
2022/01/18 04:35:33;;;;;;;12.25;2.90;;;7.20;96.00;;;;;;2080985;28;20032;-88
2022/01/18 04:36:33;;;;;;;8.07;2.75;;;7.20;95.90;;;;;;2076650;28;20061;-88
2022/01/18 04:37:34;;;;;;;8.43;2.60;;;7.20;95.90;;;;;;2080888;28;20037;-88
2022/01/18 04:38:36;;;;;;;9.95;3.00;;;7.20;96.00;;;;;;2089333;28;20066;-88
2022/01/18 04:39:40;;;;;;;10.43;3.08;;;7.20;96.00;;;;;;2081588;28;20026;-88
2022/01/18 04:40:44;;;;;;;8.15;3.10;;;7.20;96.00;;;;;;2091994;28;20025;-88
2022/01/18 04:41:46;;;;;;;11.40;3.10;;;7.20;96.30;;;;;;2089187;28;20029;-88
2022/01/18 04:49:07;;;;;;;10.90;2.90;;;7.20;96.00;;;;;;2090592;28;20036;-87
2022/01/18 04:50:07;;;;;;;8.70;2.80;;;7.10;95.90;;;;;;2087028;28;20033;-88
2022/01/18 04:51:10;;;;;;;9.73;3.03;;;7.10;95.90;;;;;;2089450;28;20059;-88
2022/01/18 04:52:12;;;;;;;7.57;2.65;;;7.10;95.90;;;;;;2089297;28;20024;-88
2022/01/18 04:53:13;;;;;;;7.78;2.60;;;7.10;95.90;;;;;;2086791;28;20037;-88
2022/01/18 04:54:15;;;;;;;10.70;3.10;;;7.10;96.00;;;;;;2095895;28;20476;-88
2022/01/18 04:55:18;;;;;;;8.98;2.60;;;7.10;96.20;;;;;;2092407;28;20028;-88
2022/01/18 04:56:28;;;;;;;6.85;2.63;;;7.10;96.00;;;;;;2081398;28;20065;-87
2022/01/18 04:58:48;;;;;;;7.32;2.53;;;7.10;96.00;;;;;;2096073;28;20039;-88
2022/01/18 04:59:49;;;;;;;8.80;2.65;;;7.10;96.00;;;;;;2092705;28;20102;-88
2022/01/18 05:00:51;;;;;;;9.57;2.97;;;7.20;96.00;;;;;;2097293;28;20033;-88
2022/01/18 05:01:52;;;;;;;7.80;2.58;;;7.10;95.90;;;;;;2083458;28;20025;-88
2022/01/18 05:02:53;;;;;;;9.05;2.65;;;7.10;95.90;;;;;;2097653;28;20387;-88
2022/01/18 05:03:54;;;;;;;8.95;3.47;;;7.10;95.90;;;;;;2090823;28;20031;-88
2022/01/18 05:04:55;;;;;;;7.03;2.83;;;7.10;96.00;;;;;;2082429;28;20037;-89
2022/01/18 05:05:59;;;;;;;10.05;2.97;;;7.10;96.00;;;;;;2084649;28;20057;-88
2022/01/18 05:07:01;;;;;;;8.00;2.80;;;7.10;96.00;;;;;;2092712;28;20048;-88
2022/01/18 05:08:05;;;;;;;8.70;2.80;;;7.10;96.00;;;;;;2097678;28;20417;-87
2022/01/18 05:09:10;;;;;;;8.57;2.63;;;7.00;96.00;;;;;;2090074;28;20396;-88
2022/01/18 05:10:10;;;;;;;8.38;2.55;;;7.10;96.30;;;;;;2084484;28;20036;-88
2022/01/18 05:11:15;;;;;;;9.80;2.90;;;7.10;96.00;;;;;;2090322;28;20044;-88
2022/01/18 05:12:24;;;;;;;8.60;2.40;;;7.10;96.00;;;;;;2076143;28;20108;-88
2022/01/18 05:14:37;;;;;;;8.93;2.97;;;7.10;96.00;;;;;;2087579;28;20051;-87
2022/01/18 05:15:45;;;;;;;7.95;3.30;;;7.10;96.00;;;;;;2088901;28;20112;-88
2022/01/18 05:16:54;;;;;;;10.23;3.10;;;7.10;96.00;;;;;;2081678;28;20030;-88
2022/01/18 05:23:01;;;;;;;8.43;2.75;;;7.10;96.00;;;;;;2075600;28;20408;-88
2022/01/18 05:24:02;;;;;;;8.25;2.70;;;7.10;96.00;;;;;;2074405;28;20027;-88
2022/01/18 05:25:03;;;;;;;9.20;2.60;;;7.10;96.00;;;;;;2083051;28;20586;-88
2022/01/18 05:26:04;;;;;;;8.40;2.88;;;7.10;96.00;;;;;;2090090;28;20506;-88
2022/01/18 05:27:05;;;;;;;7.22;2.45;;;7.00;95.90;;;;;;2086664;28;20029;-88
2022/01/18 05:28:06;;;;;;;8.60;2.75;;;7.10;96.00;;;;;;2089273;28;20470;-87
2022/01/18 05:29:07;;;;;;;7.80;2.40;;;7.10;96.00;;;;;;2078696;28;20034;-88
2022/01/18 05:30:08;;;;;;;8.32;2.38;;;7.10;96.00;;;;;;2087692;28;20116;-88
2022/01/18 05:31:09;;;;;;;7.97;2.80;;;7.10;96.00;;;;;;2090647;28;20597;-87
2022/01/18 05:32:10;;;;;;;8.32;2.75;;;7.00;96.00;;;;;;2089157;28;20033;-88
2022/01/18 05:33:10;;;;;;;7.95;2.97;;;7.10;96.00;;;;;;2082761;28;20030;-88
2022/01/18 05:34:12;;;;;;;7.43;2.90;;;7.10;96.00;;;;;;2082088;28;20045;-88
2022/01/18 05:35:13;;;;;;;8.90;2.88;;;7.10;96.00;;;;;;2090079;28;20032;-88
2022/01/18 05:36:14;;;;;;;8.07;2.97;;;7.00;96.00;;;;;;2091467;28;20025;-88
2022/01/18 05:37:16;;;;;;;6.57;2.80;;;7.10;96.00;;;;;;2082216;28;20051;-88
2022/01/18 05:38:16;;;;;;;5.53;2.50;;;7.00;96.00;;;;;;2083649;28;20027;-88
2022/01/18 05:39:17;;;;;;;7.35;2.47;;;7.00;96.00;;;;;;2082078;28;20029;-88
2022/01/18 05:40:19;;;;;;;6.97;2.60;;;7.00;96.00;;;;;;2081911;28;20026;-88
2022/01/18 05:41:20;;;;;;;6.20;2.63;;;7.00;96.00;;;;;;2090642;28;20029;-88
2022/01/18 05:42:20;;;;;;;9.27;2.80;;;7.00;96.00;;;;;;2090957;28;20029;-87
2022/01/18 05:43:21;;;;;;;6.10;2.33;;;7.00;95.90;;;;;;2088349;28;20128;-87
2022/01/18 05:44:24;;;;;;;9.13;2.72;;;7.00;95.90;;;;;;2089729;28;20029;-88
2022/01/18 05:45:25;;;;;;;7.10;2.47;;;6.90;95.90;;;;;;2087612;28;20025;-88
2022/01/18 05:46:25;;;;;;;6.88;2.53;;;7.00;96.00;;;;;;2086599;28;20037;-88
2022/01/18 05:47:26;;;;;;;6.75;2.50;;;6.90;96.00;;;;;;2082049;28;20026;-88
2022/01/18 05:48:27;;;;;;;6.88;3.10;;;7.00;96.00;;;;;;2086745;28;20112;-88
2022/01/18 05:49:28;;;;;;;5.80;2.60;;;6.90;96.00;;;;;;2098528;28;20052;-88
2022/01/18 05:50:29;;;;;;;6.72;2.70;;;6.90;96.00;;;;;;2089897;28;20083;-88
2022/01/18 05:51:31;;;;;;;6.50;2.42;;;6.90;96.00;;;;;;2090259;28;20029;-88
2022/01/18 05:52:32;;;;;;;7.55;2.95;;;6.90;96.00;;;;;;2086515;28;20040;-88
2022/01/18 05:53:36;;;;;;;6.05;2.20;;;6.90;96.00;;;;;;2086539;28;20021;-88
2022/01/18 05:54:36;;;;;;;7.20;2.65;;;7.00;96.10;;;;;;2098405;28;20074;-88
2022/01/18 05:55:37;;;;;;;7.55;2.90;;;6.90;96.00;;;;;;2089361;28;20033;-88
2022/01/18 05:56:38;;;;;;;6.55;2.25;;;6.90;96.00;;;;;;2088940;28;20091;-87
2022/01/18 05:57:39;;;;;;;7.78;2.63;;;6.90;96.00;;;;;;2080556;28;20029;-87
2022/01/18 05:58:45;;;;;;;6.38;2.80;;;6.90;96.00;;;;;;2073774;28;20033;-88
2022/01/18 05:59:47;;;;;;;6.70;2.40;;;6.90;96.00;;;;;;2089347;28;20025;-88
2022/01/18 06:00:53;;;;;;;6.60;2.70;;;7.00;96.10;;;;;;2085528;28;20110;-88
2022/01/18 06:02:02;;;;;;;6.03;2.50;;;6.90;96.00;;;;;;2084100;28;20021;-88
2022/01/18 06:03:11;;;;;;;7.53;2.92;;;6.90;96.00;;;;;;2084948;28;20481;-88
2022/01/18 06:04:19;;;;;;;8.20;2.88;;;6.90;96.00;;;;;;2089280;28;20026;-88
2022/01/18 06:06:53;;;;;;;8.02;2.40;;;6.90;96.00;;;;;;2095148;28;20090;-88
2022/01/18 06:07:54;;;;;;;8.65;3.00;;;7.00;96.00;;;;;;2085375;28;20022;-88
2022/01/18 06:08:54;;;;;;;5.82;2.53;;;6.90;96.00;;;;;;2083438;28;20033;-88
2022/01/18 06:09:56;;;;;;;6.53;2.60;;;7.00;96.00;;;;;;2088337;28;20047;-88
2022/01/18 06:10:56;;;;;;;5.88;2.33;;;6.90;96.00;;;;;;2089775;28;20032;-88
2022/01/18 06:11:57;;;;;;;6.85;2.70;;;7.00;96.00;;;;;;2089481;28;20033;-88
2022/01/18 06:13:01;;;;;;;7.72;2.70;;;6.90;96.00;;;;;;2073551;28;20112;-88
2022/01/18 06:14:02;;;;;;;6.57;2.53;;;7.00;96.00;;;;;;2074432;28;20385;-89
2022/01/18 06:15:03;;;;;;;7.45;2.45;;;6.90;96.20;;;;;;2088552;28;20031;-89
2022/01/18 06:16:05;;;;;;;9.60;2.65;;;6.90;96.00;;;;;;2081443;28;20036;-89
2022/01/18 06:17:05;;;;;;;6.25;2.70;;;6.90;96.00;;;;;;2086026;28;20058;-88
2022/01/18 06:18:06;;;;;;;8.70;2.80;;;6.90;96.00;;;;;;2087959;28;20021;-87
2022/01/18 06:19:07;;;;;;;8.38;2.90;;;6.90;96.00;;;;;;2087854;28;20040;-88
2022/01/18 06:20:08;;;;;;;7.47;2.88;;;6.90;96.00;;;;;;2084987;28;20021;-88
2022/01/18 06:21:09;;;;;;;9.05;3.20;;;6.90;96.00;;;;;;2083178;28;20025;-88
2022/01/18 06:22:10;;;;;;;8.15;2.83;;;6.90;96.00;;;;;;2079073;28;20033;-88
2022/01/18 06:23:11;;;;;;;8.00;3.05;;;6.90;96.00;;;;;;2081128;28;20124;-88
2022/01/18 06:24:11;;;;;;;6.35;3.25;;;6.90;96.00;;;;;;2090031;28;20521;-88
2022/01/18 06:25:12;;;;;;;6.53;3.08;;;6.90;96.00;;;;;;2092806;28;20094;-89
2022/01/18 06:26:15;;;;;;;6.88;2.58;;;7.00;96.00;;;;;;2090574;28;20112;-88
2022/01/18 06:27:16;;;;;;;8.57;2.53;;;7.00;96.00;;;;;;2080258;28;20030;-88
2022/01/18 06:28:16;;;;;;;8.00;2.88;;;7.00;96.00;;;;;;2098726;28;20110;-88
2022/01/18 06:29:17;;;;;;;7.95;2.70;;;7.00;96.00;;;;;;2099930;28;20145;-88
2022/01/18 06:30:18;;;;;;;7.90;3.08;;;7.00;96.00;;;;;;2083000;28;20129;-88
2022/01/18 06:31:19;;;;;;;6.80;2.70;;;7.00;96.00;;;;;;2066995;28;20035;-87
2022/01/18 06:32:20;;;;;;;6.75;3.05;;;7.00;96.00;;;;;;2077264;28;20101;-88